Time;durP1;ratioP1;P1;durP2;ratioP2;P2;SDS_P1;SDS_P2;PMS_P1;PMS_P2;Temp;Humidity;BMP_temperature;BMP_pressure;BME280_temperature;BME280_humidity;BME280_pressure;Samples;Min_cycle;Max_cycle;Signal;HPM_P1;HPM_P2
2023/11/18 00:00:36;;;;;;;9.07;6.53;;;3.40;99.90;;;;;;5080862;28;20020;-72
2023/11/18 00:03:02;;;;;;;9.45;6.72;;;;;;;;;;5082164;28;20032;-74
2023/11/18 00:05:28;;;;;;;11.82;7.75;;;;;;;;;;5082302;28;20015;-74
2023/11/18 00:07:55;;;;;;;13.80;7.53;;;;;;;;;;5082287;28;20024;-74
2023/11/18 00:10:20;;;;;;;10.48;6.68;;;3.30;99.90;;;;;;5080904;28;20062;-73
2023/11/18 00:12:49;;;;;;;9.80;7.20;;;3.30;99.90;;;;;;5081947;28;20523;-74
2023/11/18 00:15:15;;;;;;;11.77;7.65;;;3.50;99.90;;;;;;5081873;28;20031;-72
2023/11/18 00:17:41;;;;;;;9.93;7.18;;;3.30;99.90;;;;;;5081923;28;20024;-74
2023/11/18 00:20:12;;;;;;;11.10;7.38;;;3.40;96.50;;;;;;5081820;28;20028;-72
2023/11/18 00:22:38;;;;;;;12.57;7.72;;;3.30;99.90;;;;;;5082226;28;20074;-75
2023/11/18 00:25:14;;;;;;;12.55;7.38;;;3.70;96.70;;;;;;5082262;28;20052;-75
2023/11/18 00:27:43;;;;;;;12.02;7.35;;;;;;;;;;5083406;28;20044;-75
2023/11/18 00:30:10;;;;;;;12.60;7.72;;;;;;;;;;5083283;28;20393;-75
2023/11/18 00:32:37;;;;;;;10.00;7.35;;;3.40;99.90;;;;;;5084066;28;20036;-74
2023/11/18 00:35:04;;;;;;;10.30;7.65;;;3.40;99.90;;;;;;5083951;28;20078;-75
2023/11/18 00:37:30;;;;;;;11.50;8.23;;;3.40;99.10;;;;;;5082995;28;20024;-74
2023/11/18 00:39:57;;;;;;;9.77;7.07;;;;;;;;;;5082775;28;20060;-75
2023/11/18 00:42:22;;;;;;;9.10;7.25;;;3.20;99.90;;;;;;5082489;28;20025;-75
2023/11/18 00:44:48;;;;;;;11.75;7.47;;;;;;;;;;5082539;28;20186;-75
2023/11/18 00:47:14;;;;;;;13.95;7.20;;;;;;;;;;5082352;28;20021;-75
2023/11/18 00:49:40;;;;;;;10.68;7.22;;;3.20;99.90;;;;;;5082695;28;20056;-75
2023/11/18 00:52:06;;;;;;;10.23;8.15;;;3.30;99.90;;;;;;5082663;28;20084;-75
2023/11/18 00:54:32;;;;;;;7.50;5.07;;;;;;;;;;5082464;28;20020;-75
2023/11/18 00:56:58;;;;;;;11.50;8.02;;;;;;;;;;5082746;28;20017;-75
2023/11/18 00:59:23;;;;;;;12.77;8.80;;;3.40;99.90;;;;;;5083621;28;20021;-75
2023/11/18 01:01:49;;;;;;;15.40;8.88;;;3.20;99.90;;;;;;5084565;28;20340;-75
2023/11/18 01:04:15;;;;;;;15.45;9.55;;;3.40;99.90;;;;;;5084776;28;20029;-76
2023/11/18 01:06:42;;;;;;;12.60;9.48;;;3.30;97.10;;;;;;5084172;28;20047;-75
2023/11/18 01:09:09;;;;;;;12.40;8.38;;;;;;;;;;5084699;28;20059;-75
2023/11/18 01:11:35;;;;;;;14.50;8.95;;;3.20;99.90;;;;;;5083556;28;20318;-75
2023/11/18 01:14:01;;;;;;;10.98;7.32;;;3.30;99.90;;;;;;5082072;28;20085;-74
2023/11/18 01:16:28;;;;;;;10.63;8.27;;;3.30;99.90;;;;;;5082633;28;20220;-77
2023/11/18 01:18:54;;;;;;;9.90;6.50;;;3.40;99.90;;;;;;5081859;28;20013;-74
2023/11/18 01:21:20;;;;;;;9.93;6.38;;;3.30;99.80;;;;;;5080732;28;20020;-73
2023/11/18 01:23:46;;;;;;;8.30;6.65;;;3.10;98.90;;;;;;5080840;28;20024;-74
2023/11/18 01:26:13;;;;;;;11.20;7.65;;;3.30;97.00;;;;;;5080462;28;20413;-74
2023/11/18 01:28:42;;;;;;;8.70;6.72;;;;;;;;;;5080798;28;20039;-73
2023/11/18 01:31:10;;;;;;;;;;;2.90;96.90;;;;;;5080994;28;20409;-74
2023/11/18 01:33:39;;;;;;;9.77;5.82;;;3.30;99.90;;;;;;5080802;28;19908;-73
2023/11/18 01:36:08;;;;;;;8.15;5.78;;;3.20;99.90;;;;;;5080926;28;20097;-75
2023/11/18 01:38:34;;;;;;;8.20;6.07;;;3.30;99.90;;;;;;5080023;28;20028;-72
2023/11/18 01:41:00;;;;;;;9.63;6.43;;;;;;;;;;5080597;28;20433;-72
2023/11/18 01:43:26;;;;;;;11.98;6.78;;;3.40;99.90;;;;;;5080585;28;20028;-72
2023/11/18 01:45:53;;;;;;;7.95;6.57;;;3.30;98.90;;;;;;5080528;28;20028;-73
2023/11/18 01:48:41;;;;;;;10.05;6.65;;;3.40;99.90;;;;;;5080436;28;20095;-71
2023/11/18 01:51:09;;;;;;;7.65;6.40;;;3.40;99.90;;;;;;5080196;28;20032;-72
2023/11/18 01:53:38;;;;;;;8.45;6.60;;;3.40;99.90;;;;;;5080628;28;20025;-74
2023/11/18 01:56:05;;;;;;;10.73;6.30;;;3.30;99.90;;;;;;5080712;28;20023;-74
2023/11/18 01:58:36;;;;;;;8.77;6.32;;;3.90;98.50;;;;;;5080839;28;20039;-74
2023/11/18 02:01:03;;;;;;;9.00;6.35;;;3.40;96.10;;;;;;5080339;28;20312;-75
2023/11/18 02:03:30;;;;;;;6.95;5.45;;;3.50;99.90;;;;;;5080356;28;20032;-72
2023/11/18 02:05:56;;;;;;;8.52;5.93;;;3.30;99.90;;;;;;5080475;28;20350;-74
2023/11/18 02:08:22;;;;;;;9.60;5.72;;;;;;;;;;5080508;28;20385;-74
2023/11/18 02:10:53;;;;;;;13.77;6.38;;;3.30;96.20;;;;;;5080524;28;20059;-74
2023/11/18 02:13:26;;;;;;;8.35;6.07;;;3.50;99.90;;;;;;5080573;28;20024;-73
2023/11/18 02:15:59;;;;;;;9.23;6.07;;;3.30;96.40;;;;;;5080482;28;20312;-74
2023/11/18 02:18:30;;;;;;;7.60;5.80;;;3.40;99.90;;;;;;5080505;28;20066;-74
2023/11/18 02:20:59;;;;;;;9.05;5.32;;;3.30;99.90;;;;;;5079164;28;20309;-74
2023/11/18 02:23:28;;;;;;;;;;;3.40;96.70;;;;;;5080633;28;20309;-73
2023/11/18 02:25:58;;;;;;;8.27;6.00;;;3.60;99.90;;;;;;5080030;28;19966;-73
2023/11/18 02:28:23;;;;;;;;;;;3.50;96.60;;;;;;5080798;28;20056;-71
2023/11/18 02:30:54;;;;;;;7.13;5.68;;;3.30;99.90;;;;;;5080204;28;19970;-72
2023/11/18 02:33:30;;;;;;;7.63;5.80;;;3.60;99.90;;;;;;5081784;28;20048;-72
2023/11/18 02:36:41;;;;;;;7.80;5.80;;;3.50;99.90;;;;;;5083847;28;20070;-72
2023/11/18 02:39:17;;;;;;;8.10;6.03;;;3.50;96.00;;;;;;5072707;28;20028;-72
2023/11/18 02:41:46;;;;;;;9.45;4.90;;;3.60;98.30;;;;;;5083751;28;20039;-72
2023/11/18 02:44:17;;;;;;;8.13;5.60;;;3.50;99.20;;;;;;5083628;28;20259;-71
2023/11/18 02:46:43;;;;;;;9.55;6.20;;;3.60;97.90;;;;;;5083530;28;20048;-71
2023/11/18 02:49:10;;;;;;;8.05;6.15;;;3.40;96.40;;;;;;5083491;28;20063;-72
2023/11/18 02:51:39;;;;;;;8.18;5.95;;;3.30;99.90;;;;;;5083550;28;20020;-72
2023/11/18 02:54:06;;;;;;;8.02;5.65;;;3.40;99.90;;;;;;5083436;28;20024;-73
2023/11/18 02:56:32;;;;;;;8.13;6.07;;;;;;;;;;5083652;28;20082;-72
2023/11/18 02:58:59;;;;;;;9.23;5.20;;;;;;;;;;5083481;28;20030;-74
2023/11/18 03:01:27;;;;;;;11.73;6.68;;;;;;;;;;5082162;28;20077;-73
2023/11/18 03:03:54;;;;;;;9.55;6.35;;;;;;;;;;5083637;28;20567;-73
2023/11/18 03:06:20;;;;;;;8.60;5.90;;;;;;;;;;5083534;28;20059;-72
2023/11/18 03:08:47;;;;;;;7.97;6.43;;;3.20;99.90;;;;;;5083096;28;20040;-73
2023/11/18 03:11:13;;;;;;;8.70;5.95;;;;;;;;;;5083301;28;20091;-73
2023/11/18 03:13:39;;;;;;;10.57;6.95;;;3.30;99.90;;;;;;5083176;28;20024;-72
2023/11/18 03:16:11;;;;;;;10.98;7.40;;;3.10;97.40;;;;;;5083066;28;20091;-72
2023/11/18 03:18:39;;;;;;;9.75;7.05;;;3.10;97.50;;;;;;5083247;28;20032;-73
2023/11/18 03:21:06;;;;;;;10.80;7.25;;;3.00;99.90;;;;;;5083135;28;20060;-72
2023/11/18 03:23:32;;;;;;;11.82;7.35;;;;;;;;;;5082790;28;20024;-72
2023/11/18 03:25:58;;;;;;;11.05;7.70;;;3.10;97.90;;;;;;5082486;28;20266;-72
2023/11/18 03:28:24;;;;;;;11.07;7.10;;;3.20;99.90;;;;;;5082733;28;20091;-72
2023/11/18 03:30:49;;;;;;;11.95;7.72;;;3.00;99.90;;;;;;5082841;28;20036;-73
2023/11/18 03:33:15;;;;;;;10.48;6.85;;;;;;;;;;5082587;28;20375;-72
2023/11/18 03:35:41;;;;;;;13.15;7.80;;;3.30;99.90;;;;;;5081407;28;20024;-72
2023/11/18 03:38:07;;;;;;;12.68;7.30;;;;;;;;;;5082496;28;20086;-72
2023/11/18 03:40:35;;;;;;;13.32;6.88;;;3.10;99.90;;;;;;5082600;28;20079;-72
2023/11/18 03:43:01;;;;;;;10.57;6.47;;;;;;;;;;5082855;28;20028;-72
2023/11/18 03:45:27;;;;;;;7.72;5.85;;;;;;;;;;5082364;28;20312;-72
2023/11/18 03:47:52;;;;;;;7.55;5.65;;;3.20;99.90;;;;;;5082410;28;20084;-72
2023/11/18 03:50:18;;;;;;;8.55;6.47;;;;;;;;;;5082242;28;20044;-72
2023/11/18 03:52:44;;;;;;;11.25;6.32;;;;;;;;;;5081209;28;20077;-72
2023/11/18 03:55:10;;;;;;;10.45;6.72;;;;;;;;;;5082353;28;20028;-72
2023/11/18 03:57:36;;;;;;;8.57;5.95;;;;;;;;;;5082231;28;20032;-72
2023/11/18 04:00:03;;;;;;;7.03;5.30;;;3.30;99.90;;;;;;5082380;28;20033;-72
2023/11/18 04:02:28;;;;;;;7.50;5.32;;;3.40;99.90;;;;;;5082112;28;20197;-71
2023/11/18 04:04:54;;;;;;;7.50;5.68;;;;;;;;;;5082169;28;20032;-74
2023/11/18 04:07:21;;;;;;;8.35;5.97;;;3.40;99.90;;;;;;5082091;28;20024;-72
2023/11/18 04:09:47;;;;;;;11.57;6.60;;;;;;;;;;5080829;28;20040;-73
2023/11/18 04:12:13;;;;;;;6.22;4.47;;;3.50;99.90;;;;;;5082262;28;20023;-73
2023/11/18 04:14:38;;;;;;;7.95;4.85;;;3.60;99.90;;;;;;5081859;28;20032;-72
2023/11/18 04:17:04;;;;;;;7.85;4.50;;;3.60;99.90;;;;;;5081883;28;20637;-72
2023/11/18 04:19:30;;;;;;;3.67;2.85;;;;;;;;;;5081681;28;20040;-72
2023/11/18 04:21:56;;;;;;;7.97;4.60;;;3.50;99.90;;;;;;5081831;28;20082;-72
2023/11/18 04:24:22;;;;;;;9.90;5.22;;;;;;;;;;5081697;28;20038;-74
2023/11/18 04:26:49;;;;;;;5.72;4.63;;;3.80;99.90;;;;;;5081709;28;20312;-73
2023/11/18 04:29:15;;;;;;;7.82;5.43;;;3.90;99.90;;;;;;5082001;28;20032;-73
2023/11/18 04:31:40;;;;;;;6.22;4.68;;;4.00;99.90;;;;;;5081904;28;20224;-73
2023/11/18 04:34:06;;;;;;;6.15;4.78;;;4.10;99.90;;;;;;5082310;28;20024;-76
2023/11/18 04:36:31;;;;;;;6.20;4.95;;;4.10;99.90;;;;;;5080511;28;20262;-73
2023/11/18 04:38:57;;;;;;;6.85;5.03;;;4.50;99.90;;;;;;5081852;28;20048;-75
2023/11/18 04:41:24;;;;;;;6.82;4.70;;;;;;;;;;5082209;28;20016;-75
2023/11/18 04:43:50;;;;;;;5.88;4.78;;;4.10;99.90;;;;;;5081784;28;20028;-75
2023/11/18 04:46:16;;;;;;;6.22;3.65;;;;;;;;;;5082213;28;20021;-75
2023/11/18 04:48:42;;;;;;;5.93;4.78;;;4.20;96.40;;;;;;5081299;28;20036;-75
2023/11/18 04:51:08;;;;;;;5.10;4.15;;;;;;;;;;5081396;28;20029;-75
2023/11/18 04:53:34;;;;;;;5.38;4.65;;;4.30;99.90;;;;;;5081785;28;20021;-75
2023/11/18 04:56:00;;;;;;;5.97;5.00;;;;;;;;;;5080741;28;20096;-73
2023/11/18 04:58:26;;;;;;;5.55;4.75;;;;;;;;;;5081050;28;20337;-73
2023/11/18 05:00:52;;;;;;;7.28;3.78;;;4.30;96.70;;;;;;5081084;28;20090;-73
2023/11/18 05:03:18;;;;;;;5.18;4.10;;;;;;;;;;5081413;28;20039;-74
2023/11/18 05:05:44;;;;;;;4.80;4.10;;;4.30;99.90;;;;;;5081412;28;20024;-75
2023/11/18 05:08:21;;;;;;;5.85;4.18;;;4.20;99.90;;;;;;5081119;28;20017;-75
2023/11/18 05:10:48;;;;;;;7.07;4.55;;;4.10;99.90;;;;;;5080982;28;20044;-74
2023/11/18 05:13:18;;;;;;;5.68;4.32;;;4.20;99.90;;;;;;5080979;28;20020;-74
2023/11/18 05:15:45;;;;;;;5.55;4.60;;;4.00;96.90;;;;;;5079444;28;20016;-74
2023/11/18 05:18:13;;;;;;;5.53;4.13;;;4.40;99.10;;;;;;5080767;28;20012;-74
2023/11/18 05:20:40;;;;;;;6.85;4.35;;;;;;;;;;5080828;28;20016;-74
2023/11/18 05:23:06;;;;;;;5.80;4.50;;;4.10;99.90;;;;;;5081012;28;20024;-74
2023/11/18 05:25:33;;;;;;;5.75;4.57;;;;;;;;;;5081029;28;20233;-75
2023/11/18 05:27:59;;;;;;;5.97;4.75;;;;;;;;;;5081386;28;20398;-75
2023/11/18 05:30:25;;;;;;;5.90;4.68;;;;;;;;;;5081951;28;20092;-75
2023/11/18 05:32:55;;;;;;;7.53;5.68;;;;;;;;;;5081564;28;20587;-75
2023/11/18 05:35:27;;;;;;;5.43;4.82;;;;;;;;;;5081485;28;20021;-75
2023/11/18 05:37:54;;;;;;;7.68;5.50;;;;;;;;;;5081185;28;20020;-75
2023/11/18 05:40:20;;;;;;;6.13;4.93;;;;;;;;;;5078984;28;20020;-75
2023/11/18 05:42:48;;;;;;;5.93;4.57;;;3.60;95.90;;;;;;5078852;28;20021;-75
2023/11/18 05:45:27;;;;;;;4.40;3.72;;;;;;;;;;5079428;28;20081;-75
2023/11/18 05:47:56;;;;;;;6.72;5.03;;;3.60;99.90;;;;;;5079736;28;20043;-75
2023/11/18 05:50:24;;;;;;;;;;;3.70;96.10;;;;;;5079989;28;20099;-75
2023/11/18 05:52:50;;;;;;;6.65;5.05;;;3.70;99.90;;;;;;5079255;28;19970;-75
2023/11/18 05:55:17;;;;;;;9.23;4.40;;;;;;;;;;5079585;28;20032;-74
2023/11/18 05:57:44;;;;;;;3.95;2.65;;;;;;;;;;5080438;28;20028;-74
2023/11/18 06:00:15;;;;;;;5.82;4.47;;;3.60;99.90;;;;;;5080459;28;20025;-74
2023/11/18 06:02:43;;;;;;;10.27;5.03;;;3.50;99.90;;;;;;5080412;28;20020;-74
2023/11/18 06:05:12;;;;;;;6.03;4.70;;;3.60;96.10;;;;;;5078966;28;20441;-71
2023/11/18 06:07:39;;;;;;;7.80;4.82;;;;;;;;;;5080627;28;20277;-71
2023/11/18 06:10:06;;;;;;;6.60;4.70;;;3.60;99.90;;;;;;5084364;28;20223;-70
2023/11/18 06:12:32;;;;;;;7.05;4.82;;;3.30;97.50;;;;;;5084444;28;20024;-71
2023/11/18 06:14:59;;;;;;;5.45;4.35;;;3.60;95.90;;;;;;5082986;28;20211;-72
2023/11/18 06:17:25;;;;;;;5.50;4.53;;;3.40;98.20;;;;;;5084125;28;20020;-71
2023/11/18 06:19:50;;;;;;;5.60;4.78;;;3.60;99.90;;;;;;5084768;28;20067;-76
2023/11/18 06:22:16;;;;;;;9.15;5.03;;;3.50;99.90;;;;;;5084937;28;20021;-75
2023/11/18 06:24:42;;;;;;;7.65;3.88;;;;;;;;;;5085420;28;20020;-75
2023/11/18 06:27:10;;;;;;;6.40;4.50;;;3.50;95.70;;;;;;5085297;28;20059;-75
2023/11/18 06:29:35;;;;;;;6.07;4.63;;;3.60;99.90;;;;;;5084875;28;20047;-76
2023/11/18 06:32:01;;;;;;;5.05;4.13;;;3.50;99.90;;;;;;5085579;28;20025;-76
2023/11/18 06:34:27;;;;;;;5.85;3.65;;;;;;;;;;5085498;28;20036;-76
2023/11/18 06:36:56;;;;;;;6.05;4.55;;;3.60;95.80;;;;;;5085663;28;20252;-77
2023/11/18 06:39:29;;;;;;;6.13;4.83;;;3.40;99.90;;;;;;5084322;28;20032;-76
2023/11/18 06:41:55;;;;;;;4.85;4.00;;;;;;;;;;5084302;28;20249;-77
2023/11/18 06:44:24;;;;;;;7.70;4.70;;;3.50;99.90;;;;;;5084719;28;20017;-77
2023/11/18 06:46:50;;;;;;;4.45;3.85;;;3.60;99.90;;;;;;5082926;28;20300;-77
2023/11/18 06:49:16;;;;;;;5.78;4.55;;;;;;;;;;5082599;28;20385;-77
2023/11/18 06:51:42;;;;;;;7.80;4.30;;;;;;;;;;5083270;28;20088;-78
2023/11/18 06:54:09;;;;;;;6.00;4.38;;;3.70;95.50;;;;;;5084896;28;20017;-77
2023/11/18 06:56:37;;;;;;;6.53;4.13;;;3.50;98.90;;;;;;5085323;28;20020;-75
2023/11/18 06:59:06;;;;;;;6.57;4.72;;;3.70;95.60;;;;;;5084449;28;20025;-74
2023/11/18 07:01:35;;;;;;;6.50;4.55;;;3.60;98.40;;;;;;5085434;28;20028;-75
2023/11/18 07:04:02;;;;;;;6.60;4.13;;;3.60;99.90;;;;;;5085788;28;20024;-75
2023/11/18 07:06:27;;;;;;;7.57;4.40;;;3.60;98.70;;;;;;5085341;28;20054;-75
2023/11/18 07:09:00;;;;;;;5.68;4.07;;;3.70;95.50;;;;;;5077147;28;20312;-75
2023/11/18 07:11:25;;;;;;;6.78;4.30;;;4.00;99.90;;;;;;5067180;28;20032;-75
2023/11/18 07:13:56;;;;;;;6.45;4.70;;;;;;;;;;5063357;28;20070;-75
2023/11/18 07:16:25;;;;;;;6.53;3.97;;;3.70;99.40;;;;;;5063260;28;20040;-75
2023/11/18 07:18:52;;;;;;;8.73;5.03;;;3.70;98.20;;;;;;5062716;28;20027;-75
2023/11/18 07:21:19;;;;;;;4.85;4.10;;;4.20;99.30;;;;;;5063366;28;20051;-75
2023/11/18 07:23:45;;;;;;;7.30;4.30;;;;;;;;;;5063444;28;20359;-75
2023/11/18 07:26:10;;;;;;;3.92;3.35;;;4.20;99.90;;;;;;5063058;28;20116;-75
2023/11/18 07:28:36;;;;;;;6.22;4.60;;;4.50;94.10;;;;;;5063303;28;20317;-75
2023/11/18 07:31:04;;;;;;;5.07;3.95;;;;;;;;;;5063712;28;20041;-74
2023/11/18 07:33:32;;;;;;;6.75;3.97;;;5.20;98.40;;;;;;5062976;28;20044;-75
2023/11/18 07:35:58;;;;;;;7.05;4.07;;;;;;;;;;5063005;28;20055;-74
2023/11/18 07:38:24;;;;;;;5.82;4.00;;;5.60;99.60;;;;;;5062795;28;20020;-75
2023/11/18 07:40:52;;;;;;;4.68;3.58;;;;;;;;;;5062847;28;20033;-75
2023/11/18 07:43:21;;;;;;;4.33;3.50;;;5.60;98.80;;;;;;5062894;28;20076;-75
2023/11/18 07:45:50;;;;;;;13.32;5.50;;;;;;;;;;5062874;28;20661;-79
2023/11/18 07:48:17;;;;;;;4.43;3.28;;;5.60;98.40;;;;;;5063208;28;20028;-76
2023/11/18 07:50:44;;;;;;;4.30;3.42;;;5.60;96.80;;;;;;5063107;28;20091;-76
2023/11/18 07:53:10;;;;;;;5.50;3.10;;;5.50;98.80;;;;;;5062869;28;20052;-75
2023/11/18 07:55:40;;;;;;;4.10;3.38;;;;;;;;;;5063258;28;20343;-75
2023/11/18 07:58:10;;;;;;;;;;;5.50;91.60;;;;;;5063389;28;20351;-72
2023/11/18 08:00:40;;;;;;;3.35;3.03;;;5.30;92.80;;;;;;5061442;28;20086;-75
2023/11/18 08:03:13;;;;;;;6.55;2.95;;;5.40;91.20;;;;;;5062445;28;20055;-75
2023/11/18 08:05:45;;;;;;;4.70;3.53;;;5.40;90.90;;;;;;5062565;28;20024;-75
2023/11/18 08:08:16;;;;;;;4.88;3.50;;;5.50;91.00;;;;;;5062204;28;20040;-75
2023/11/18 08:10:43;;;;;;;5.93;3.20;;;;;;;;;;5061983;28;20041;-74
2023/11/18 08:13:10;;;;;;;5.00;3.70;;;5.70;97.40;;;;;;5062284;28;20062;-74
2023/11/18 08:15:40;;;;;;;4.93;2.75;;;5.50;90.20;;;;;;5062350;28;20146;-74
2023/11/18 08:18:06;;;;;;;4.65;3.00;;;5.80;90.10;;;;;;5062183;28;20029;-74
2023/11/18 08:20:33;;;;;;;4.35;3.33;;;5.80;89.90;;;;;;5061661;28;20029;-74
2023/11/18 08:22:59;;;;;;;3.50;2.38;;;5.80;95.20;;;;;;5061923;28;20019;-74
2023/11/18 08:25:25;;;;;;;4.00;2.80;;;6.10;96.50;;;;;;5061653;28;20111;-75
2023/11/18 08:27:51;;;;;;;3.45;2.80;;;6.10;87.70;;;;;;5061487;28;20087;-73
2023/11/18 08:30:18;;;;;;;2.40;2.20;;;;;;;;;;5060730;28;20041;-72
2023/11/18 08:32:45;;;;;;;3.85;2.60;;;6.30;86.70;;;;;;5061578;28;20066;-72
2023/11/18 08:35:15;;;;;;;3.30;2.60;;;6.40;86.30;;;;;;5061330;28;20033;-70
2023/11/18 08:37:47;;;;;;;3.42;2.40;;;6.50;95.20;;;;;;5061371;28;20013;-71
2023/11/18 08:40:21;;;;;;;2.70;2.28;;;6.40;86.00;;;;;;5061283;28;20044;-71
2023/11/18 08:42:53;;;;;;;2.65;1.63;;;6.60;83.70;;;;;;5061316;28;20025;-78
2023/11/18 08:45:27;;;;;;;4.40;2.40;;;6.80;93.60;;;;;;5061458;28;20017;-73
2023/11/18 08:47:53;;;;;;;3.13;2.65;;;;;;;;;;5061561;28;20025;-73
2023/11/18 08:50:19;;;;;;;2.28;1.98;;;6.70;87.40;;;;;;5061348;28;20104;-74
2023/11/18 08:52:47;;;;;;;4.63;2.75;;;6.80;89.20;;;;;;5061146;28;20028;-73
2023/11/18 08:58:03;;;;;;;3.35;2.05;;;;;;;;;;5061323;28;20036;-73
2023/11/18 09:00:48;;;;;;;3.58;2.22;;;6.50;92.70;;;;;;5061231;28;20100;-73
2023/11/18 09:03:34;;;;;;;3.10;2.03;;;;;;;;;;5061394;28;20029;-74
2023/11/18 09:06:04;;;;;;;3.47;2.20;;;6.70;80.10;;;;;;5060969;28;20074;-74
2023/11/18 09:08:34;;;;;;;3.00;2.50;;;6.50;92.80;;;;;;5061327;28;20252;-73
2023/11/18 09:11:05;;;;;;;3.83;2.35;;;6.60;92.60;;;;;;5061125;28;20051;-73
2023/11/18 09:13:31;;;;;;;3.08;2.50;;;6.50;92.70;;;;;;5061160;28;20239;-73
2023/11/18 09:16:09;;;;;;;1.92;1.58;;;6.50;80.10;;;;;;5060890;28;20036;-74
2023/11/18 09:18:36;;;;;;;2.00;1.80;;;6.50;80.90;;;;;;5061097;28;20024;-73
2023/11/18 09:21:05;;;;;;;2.75;2.15;;;6.60;93.10;;;;;;5061072;28;20238;-73
2023/11/18 09:23:34;;;;;;;2.80;2.60;;;6.70;92.80;;;;;;5080650;28;20027;-72
2023/11/18 09:26:01;;;;;;;1.70;1.60;;;6.60;91.10;;;;;;5076670;28;20060;-70
2023/11/18 09:28:30;;;;;;;2.40;1.98;;;6.60;93.10;;;;;;5080735;28;20020;-72
2023/11/18 09:31:00;;;;;;;3.35;2.58;;;;;;;;;;5077813;28;20046;-71
2023/11/18 09:33:32;;;;;;;2.97;2.22;;;6.70;79.60;;;;;;5059200;28;20031;-71
2023/11/18 09:36:07;;;;;;;3.03;1.83;;;6.70;79.00;;;;;;5060476;28;20028;-72
2023/11/18 09:38:37;;;;;;;2.45;2.20;;;6.60;79.20;;;;;;5060200;28;20021;-72
2023/11/18 09:41:07;;;;;;;2.55;1.90;;;6.50;80.30;;;;;;5060314;28;20028;-73
2023/11/18 09:43:42;;;;;;;2.10;1.58;;;6.50;87.90;;;;;;5059111;28;20427;-73
2023/11/18 09:46:13;;;;;;;2.28;1.70;;;6.30;81.80;;;;;;5062664;28;20052;-73
2023/11/18 09:48:43;;;;;;;2.25;1.63;;;6.60;92.50;;;;;;5060278;28;20025;-72
2023/11/18 09:51:09;;;;;;;1.88;1.70;;;7.00;80.90;;;;;;5060233;28;20047;-73
2023/11/18 09:53:40;;;;;;;2.42;2.22;;;7.30;78.00;;;;;;5060286;28;20025;-72
2023/11/18 09:56:26;;;;;;;3.80;2.03;;;7.30;81.40;;;;;;5061481;28;20032;-72
2023/11/18 09:59:19;;;;;;;2.50;2.13;;;7.50;90.20;;;;;;5080465;28;20027;-72
2023/11/18 10:01:53;;;;;;;1.50;1.40;;;7.90;74.30;;;;;;5080454;28;20071;-71
2023/11/18 10:04:20;;;;;;;2.00;1.20;;;8.30;73.20;;;;;;5066880;28;20029;-72
2023/11/18 10:06:53;;;;;;;1.73;1.52;;;7.80;76.00;;;;;;5060116;28;20344;-73
2023/11/18 10:09:28;;;;;;;3.25;1.90;;;7.80;77.50;;;;;;5060278;28;20040;-73
2023/11/18 10:12:00;;;;;;;1.52;1.30;;;8.10;72.20;;;;;;5060076;28;20036;-73
2023/11/18 10:14:27;;;;;;;1.98;1.40;;;7.80;75.80;;;;;;5059952;28;20202;-72
2023/11/18 10:16:54;;;;;;;1.80;1.70;;;7.70;86.40;;;;;;5059944;28;20029;-72
2023/11/18 10:19:20;;;;;;;5.00;1.70;;;7.50;87.50;;;;;;5060092;28;20025;-71
2023/11/18 10:21:48;;;;;;;2.03;1.73;;;8.00;86.20;;;;;;5059830;28;20032;-71
2023/11/18 10:24:19;;;;;;;1.05;0.95;;;8.20;75.00;;;;;;5071041;28;20087;-73
2023/11/18 10:27:08;;;;;;;1.55;1.45;;;8.50;74.80;;;;;;5079774;28;20064;-73
2023/11/18 10:29:35;;;;;;;1.73;1.63;;;;;;;;;;5080100;28;20047;-73
2023/11/18 10:32:09;;;;;;;1.90;1.48;;;8.00;80.00;;;;;;5080036;28;20025;-73
2023/11/18 10:34:35;;;;;;;1.88;1.50;;;8.30;70.30;;;;;;5080160;28;20024;-73
2023/11/18 10:37:06;;;;;;;2.05;1.58;;;9.00;78.80;;;;;;5080035;28;20087;-72
2023/11/18 10:39:34;;;;;;;1.90;1.40;;;8.60;85.50;;;;;;5079990;28;20051;-72
2023/11/18 10:42:01;;;;;;;2.15;1.75;;;;;;;;;;5079975;28;20025;-73
2023/11/18 10:44:27;;;;;;;1.38;1.08;;;8.70;77.50;;;;;;5080117;28;20052;-73
2023/11/18 10:46:53;;;;;;;2.05;1.52;;;8.20;72.60;;;;;;5080002;28;20304;-72
2023/11/18 10:49:22;;;;;;;1.38;1.20;;;8.20;69.90;;;;;;5079566;28;20044;-72
2023/11/18 10:51:51;;;;;;;1.75;1.45;;;8.50;74.70;;;;;;5079735;28;20375;-72
2023/11/18 10:54:21;;;;;;;1.53;1.20;;;;;;;;;;5081245;28;20044;-71
2023/11/18 10:56:47;;;;;;;1.88;1.30;;;8.10;70.30;;;;;;5069201;28;20284;-72
2023/11/18 10:59:16;;;;;;;1.35;1.20;;;8.40;70.20;;;;;;5062134;28;20067;-73
2023/11/18 11:01:43;;;;;;;1.27;1.10;;;8.30;74.60;;;;;;5062126;28;20024;-74
2023/11/18 11:04:10;;;;;;;1.48;1.38;;;8.50;68.40;;;;;;5062435;28;20291;-72
2023/11/18 11:06:42;;;;;;;1.42;1.30;;;8.60;68.20;;;;;;5062035;28;20021;-71
2023/11/18 11:09:16;;;;;;;1.73;1.17;;;8.00;67.60;;;;;;5061918;28;20351;-72
2023/11/18 11:11:51;;;;;;;1.45;1.15;;;8.80;68.10;;;;;;5064032;28;20100;-73
2023/11/18 11:14:20;;;;;;;1.20;1.08;;;9.40;83.10;;;;;;5063182;28;20021;-73
2023/11/18 11:16:50;;;;;;;;;;;8.90;68.00;;;;;;5063381;28;20359;-72
2023/11/18 11:19:44;;;;;;;3.08;1.00;;;9.20;66.10;;;;;;5062632;28;19920;-72
2023/11/18 11:22:19;;;;;;;0.68;0.68;;;9.10;64.40;;;;;;5078081;28;20024;-72
2023/11/18 11:25:21;;;;;;;0.28;0.28;;;8.90;64.00;;;;;;5081687;28;20063;-72
2023/11/18 11:28:05;;;;;;;0.93;0.80;;;8.60;65.20;;;;;;5074972;28;20060;-72
2023/11/18 11:30:40;;;;;;;1.00;0.90;;;8.20;80.90;;;;;;5091463;28;20380;-72
2023/11/18 11:33:19;;;;;;;1.13;1.02;;;8.10;68.30;;;;;;5103254;28;20095;-72
2023/11/18 11:35:57;;;;;;;2.72;1.40;;;8.60;81.60;;;;;;5099945;28;20016;-72
2023/11/18 11:38:23;;;;;;;1.15;1.05;;;;;;;;;;5082552;28;20096;-73
2023/11/18 11:40:49;;;;;;;1.23;0.82;;;;;;;;;;5082543;28;20026;-73
2023/11/18 11:43:21;;;;;;;1.70;1.00;;;;;;;;;;5082625;28;20012;-73
2023/11/18 11:45:51;;;;;;;1.13;0.93;;;8.50;73.50;;;;;;5082670;28;20096;-76
2023/11/18 11:48:27;;;;;;;0.85;0.57;;;8.70;64.70;;;;;;5082237;28;20031;-74
2023/11/18 11:51:13;;;;;;;1.35;1.02;;;8.60;73.50;;;;;;5082426;28;20041;-73
2023/11/18 11:53:45;;;;;;;0.82;0.80;;;8.90;78.80;;;;;;5082235;28;20058;-74
2023/11/18 11:56:20;;;;;;;1.67;1.15;;;;;;;;;;5082085;28;20024;-74
2023/11/18 11:58:51;;;;;;;0.80;0.80;;;;;;;;;;5082439;28;20035;-74
2023/11/18 12:01:33;;;;;;;1.95;1.08;;;9.10;62.90;;;;;;5082161;28;20032;-74
2023/11/18 12:04:06;;;;;;;1.83;1.00;;;8.90;63.00;;;;;;5082118;28;20208;-74
2023/11/18 12:06:35;;;;;;;1.08;1.00;;;9.10;63.00;;;;;;5081994;28;20028;-74
2023/11/18 12:09:06;;;;;;;1.88;0.60;;;9.50;77.20;;;;;;5082042;28;20021;-73
2023/11/18 12:11:39;;;;;;;2.38;0.82;;;9.10;61.10;;;;;;5082111;28;20032;-74
2023/11/18 12:14:32;;;;;;;0.90;0.90;;;8.90;61.40;;;;;;5081834;28;20077;-75
2023/11/18 12:17:08;;;;;;;2.47;1.00;;;8.80;76.90;;;;;;5082025;28;20189;-74
2023/11/18 12:19:46;;;;;;;1.20;0.90;;;8.90;76.90;;;;;;5082183;28;20042;-73
2023/11/18 12:22:17;;;;;;;1.45;1.00;;;8.70;61.60;;;;;;5081922;28;20050;-73
2023/11/18 12:25:06;;;;;;;2.08;1.15;;;8.40;76.90;;;;;;5080000;28;20204;-73
2023/11/18 12:27:41;;;;;;;1.08;0.98;;;8.40;62.80;;;;;;5081203;28;20228;-74
2023/11/18 12:30:15;;;;;;;1.45;0.88;;;8.20;63.40;;;;;;5079793;28;20048;-74
2023/11/18 12:33:18;;;;;;;1.13;0.90;;;8.20;79.80;;;;;;5081706;28;20016;-73
2023/11/18 12:35:50;;;;;;;2.08;0.80;;;7.90;64.40;;;;;;5081635;28;20288;-75
2023/11/18 12:38:28;;;;;;;1.35;1.02;;;7.60;80.90;;;;;;5080520;28;20102;-75
2023/11/18 12:40:59;;;;;;;1.13;0.93;;;7.70;65.20;;;;;;5081887;28;20016;-73
2023/11/18 12:43:59;;;;;;;1.13;1.02;;;7.60;81.50;;;;;;5081670;28;20013;-74
2023/11/18 12:47:15;;;;;;;1.20;1.10;;;8.60;65.20;;;;;;5081763;28;20024;-73
2023/11/18 12:49:41;;;;;;;3.20;1.20;;;11.60;73.40;;;;;;5081521;28;20224;-73
2023/11/18 12:52:09;;;;;;;1.58;1.27;;;12.70;54.50;;;;;;5082430;28;20032;-75
2023/11/18 12:54:43;;;;;;;2.72;1.00;;;11.60;59.00;;;;;;5081524;28;20043;-72
2023/11/18 12:57:09;;;;;;;1.15;1.02;;;12.00;56.10;;;;;;5081176;28;20062;-73
2023/11/18 12:59:37;;;;;;;2.47;1.20;;;11.00;68.90;;;;;;5081138;28;20016;-74
2023/11/18 13:02:18;;;;;;;1.60;1.40;;;11.20;59.90;;;;;;5081227;28;20251;-73
2023/11/18 13:04:47;;;;;;;1.10;1.00;;;;;;;;;;5081177;28;20032;-75
2023/11/18 13:07:17;;;;;;;1.30;1.20;;;9.20;59.50;;;;;;5080960;28;20032;-73
2023/11/18 13:09:45;;;;;;;1.23;1.13;;;9.00;60.90;;;;;;5083570;28;20097;-73
2023/11/18 13:12:14;;;;;;;1.48;1.15;;;8.70;61.80;;;;;;5082248;28;20028;-73
2023/11/18 13:14:43;;;;;;;1.95;1.13;;;8.70;68.70;;;;;;5080847;28;20052;-74
2023/11/18 13:17:15;;;;;;;1.23;1.00;;;8.50;62.00;;;;;;5080256;28;20364;-73
2023/11/18 13:19:42;;;;;;;1.25;0.93;;;8.60;77.80;;;;;;5080974;28;20026;-73
2023/11/18 13:22:11;;;;;;;1.58;0.98;;;8.20;62.70;;;;;;5080931;28;20024;-72
2023/11/18 13:24:40;;;;;;;1.25;1.15;;;7.70;78.70;;;;;;5079382;28;20020;-73
2023/11/18 13:27:08;;;;;;;2.72;1.00;;;7.70;79.50;;;;;;5080317;28;20111;-73
2023/11/18 13:29:36;;;;;;;1.30;1.20;;;7.70;68.00;;;;;;5080345;28;20067;-74
2023/11/18 13:32:06;;;;;;;1.20;1.10;;;7.40;65.10;;;;;;5080239;28;20020;-73
2023/11/18 13:34:33;;;;;;;2.80;1.10;;;;;;;;;;5079040;28;20066;-73